sensor_id;sensor_type;location;lat;lon;timestamp;temperature;humidity
12166;DHT22;6146;48.128;11.476;2023-08-12T00:00:16;18.20;99.90
12166;DHT22;6146;48.128;11.476;2023-08-12T00:02:43;18.20;99.90
12166;DHT22;6146;48.128;11.476;2023-08-12T00:05:09;18.10;99.90
12166;DHT22;6146;48.128;11.476;2023-08-12T00:07:41;18.00;99.90
12166;DHT22;6146;48.128;11.476;2023-08-12T00:10:08;18.00;99.90
12166;DHT22;6146;48.128;11.476;2023-08-12T00:12:34;17.90;99.90
12166;DHT22;6146;48.128;11.476;2023-08-12T00:15:00;17.90;99.90
12166;DHT22;6146;48.128;11.476;2023-08-12T00:17:26;17.90;99.90
12166;DHT22;6146;48.128;11.476;2023-08-12T00:19:52;17.90;99.90
12166;DHT22;6146;48.128;11.476;2023-08-12T00:22:17;17.80;99.90
12166;DHT22;6146;48.128;11.476;2023-08-12T00:24:43;17.80;99.90
12166;DHT22;6146;48.128;11.476;2023-08-12T00:27:10;17.80;99.90
12166;DHT22;6146;48.128;11.476;2023-08-12T00:29:35;17.80;99.90
12166;DHT22;6146;48.128;11.476;2023-08-12T00:32:01;17.80;99.90
12166;DHT22;6146;48.128;11.476;2023-08-12T00:34:27;17.70;99.90
12166;DHT22;6146;48.128;11.476;2023-08-12T00:36:52;17.70;99.90
12166;DHT22;6146;48.128;11.476;2023-08-12T00:39:18;17.60;99.90
12166;DHT22;6146;48.128;11.476;2023-08-12T00:41:44;17.60;99.90
12166;DHT22;6146;48.128;11.476;2023-08-12T00:44:09;17.50;99.90
12166;DHT22;6146;48.128;11.476;2023-08-12T00:46:36;17.50;99.90
12166;DHT22;6146;48.128;11.476;2023-08-12T00:49:02;17.40;99.90
12166;DHT22;6146;48.128;11.476;2023-08-12T00:51:27;17.40;99.90
12166;DHT22;6146;48.128;11.476;2023-08-12T00:53:54;17.40;99.90
12166;DHT22;6146;48.128;11.476;2023-08-12T00:56:21;17.30;99.90
12166;DHT22;6146;48.128;11.476;2023-08-12T00:58:47;17.30;99.90
12166;DHT22;6146;48.128;11.476;2023-08-12T01:01:13;17.20;99.90
12166;DHT22;6146;48.128;11.476;2023-08-12T01:03:38;17.20;99.90
12166;DHT22;6146;48.128;11.476;2023-08-12T01:06:04;17.20;99.90
12166;DHT22;6146;48.128;11.476;2023-08-12T01:08:32;17.20;99.90
12166;DHT22;6146;48.128;11.476;2023-08-12T01:13:46;17.10;99.90
12166;DHT22;6146;48.128;11.476;2023-08-12T01:16:16;17.00;99.90
12166;DHT22;6146;48.128;11.476;2023-08-12T01:18:43;17.00;99.90
12166;DHT22;6146;48.128;11.476;2023-08-12T01:21:11;17.00;99.90
12166;DHT22;6146;48.128;11.476;2023-08-12T01:23:41;17.00;99.90
12166;DHT22;6146;48.128;11.476;2023-08-12T01:26:07;16.90;99.90
12166;DHT22;6146;48.128;11.476;2023-08-12T01:28:32;16.90;99.90
12166;DHT22;6146;48.128;11.476;2023-08-12T01:33:49;16.80;99.90
12166;DHT22;6146;48.128;11.476;2023-08-12T01:36:18;16.80;99.90
12166;DHT22;6146;48.128;11.476;2023-08-12T01:38:45;16.70;99.90
12166;DHT22;6146;48.128;11.476;2023-08-12T01:41:15;16.70;99.90
12166;DHT22;6146;48.128;11.476;2023-08-12T01:43:41;16.70;99.90
12166;DHT22;6146;48.128;11.476;2023-08-12T01:46:07;16.60;99.90
12166;DHT22;6146;48.128;11.476;2023-08-12T01:48:33;16.60;99.90
12166;DHT22;6146;48.128;11.476;2023-08-12T01:50:58;16.70;99.90
12166;DHT22;6146;48.128;11.476;2023-08-12T01:53:24;16.70;99.90
12166;DHT22;6146;48.128;11.476;2023-08-12T01:55:50;16.70;99.90
12166;DHT22;6146;48.128;11.476;2023-08-12T01:58:16;16.70;99.90
12166;DHT22;6146;48.128;11.476;2023-08-12T02:00:42;16.70;99.90
12166;DHT22;6146;48.128;11.476;2023-08-12T02:03:07;16.70;99.90
12166;DHT22;6146;48.128;11.476;2023-08-12T02:05:33;16.60;99.90
12166;DHT22;6146;48.128;11.476;2023-08-12T02:07:59;16.60;99.90
12166;DHT22;6146;48.128;11.476;2023-08-12T02:10:24;16.60;99.90
12166;DHT22;6146;48.128;11.476;2023-08-12T02:12:50;17.20;99.90
12166;DHT22;6146;48.128;11.476;2023-08-12T02:15:15;16.60;99.90
12166;DHT22;6146;48.128;11.476;2023-08-12T02:17:41;16.50;99.90
12166;DHT22;6146;48.128;11.476;2023-08-12T02:20:07;16.50;99.90
12166;DHT22;6146;48.128;11.476;2023-08-12T02:22:33;16.50;99.90
12166;DHT22;6146;48.128;11.476;2023-08-12T02:24:58;16.50;99.90
12166;DHT22;6146;48.128;11.476;2023-08-12T02:27:24;16.50;99.90
12166;DHT22;6146;48.128;11.476;2023-08-12T02:29:49;16.50;99.90
12166;DHT22;6146;48.128;11.476;2023-08-12T02:32:15;16.50;99.90
12166;DHT22;6146;48.128;11.476;2023-08-12T02:34:41;16.50;99.90
12166;DHT22;6146;48.128;11.476;2023-08-12T02:37:06;16.40;99.90
12166;DHT22;6146;48.128;11.476;2023-08-12T02:39:32;16.40;99.90
12166;DHT22;6146;48.128;11.476;2023-08-12T02:41:57;16.40;99.90
12166;DHT22;6146;48.128;11.476;2023-08-12T02:44:23;16.40;99.90
12166;DHT22;6146;48.128;11.476;2023-08-12T02:46:48;16.30;99.90
12166;DHT22;6146;48.128;11.476;2023-08-12T02:49:14;16.30;99.90
12166;DHT22;6146;48.128;11.476;2023-08-12T02:51:39;16.20;99.90
12166;DHT22;6146;48.128;11.476;2023-08-12T02:54:05;16.20;99.90
12166;DHT22;6146;48.128;11.476;2023-08-12T02:56:30;16.20;99.90
12166;DHT22;6146;48.128;11.476;2023-08-12T02:58:56;16.20;99.90
12166;DHT22;6146;48.128;11.476;2023-08-12T03:01:22;16.10;99.90
12166;DHT22;6146;48.128;11.476;2023-08-12T03:03:47;16.10;99.90
12166;DHT22;6146;48.128;11.476;2023-08-12T03:06:13;16.10;99.90
12166;DHT22;6146;48.128;11.476;2023-08-12T03:08:38;16.00;99.90
12166;DHT22;6146;48.128;11.476;2023-08-12T03:11:04;16.00;99.90
12166;DHT22;6146;48.128;11.476;2023-08-12T03:13:30;15.90;99.90
12166;DHT22;6146;48.128;11.476;2023-08-12T03:15:55;15.90;99.90
12166;DHT22;6146;48.128;11.476;2023-08-12T03:18:21;15.90;99.90
12166;DHT22;6146;48.128;11.476;2023-08-12T03:20:47;15.90;99.90
12166;DHT22;6146;48.128;11.476;2023-08-12T03:23:12;15.90;99.90
12166;DHT22;6146;48.128;11.476;2023-08-12T03:25:38;15.80;99.90
12166;DHT22;6146;48.128;11.476;2023-08-12T03:28:04;15.80;99.90
12166;DHT22;6146;48.128;11.476;2023-08-12T03:30:29;15.80;99.90
12166;DHT22;6146;48.128;11.476;2023-08-12T03:32:55;15.70;99.90
12166;DHT22;6146;48.128;11.476;2023-08-12T03:35:21;15.70;99.90
12166;DHT22;6146;48.128;11.476;2023-08-12T03:37:46;15.70;99.90
12166;DHT22;6146;48.128;11.476;2023-08-12T03:40:12;15.70;99.90
12166;DHT22;6146;48.128;11.476;2023-08-12T03:42:38;15.70;99.90
12166;DHT22;6146;48.128;11.476;2023-08-12T03:45:03;15.70;99.90
12166;DHT22;6146;48.128;11.476;2023-08-12T03:47:29;15.60;99.90
12166;DHT22;6146;48.128;11.476;2023-08-12T03:49:55;15.60;99.90
12166;DHT22;6146;48.128;11.476;2023-08-12T03:52:20;15.60;99.90
12166;DHT22;6146;48.128;11.476;2023-08-12T03:54:46;15.60;99.90
12166;DHT22;6146;48.128;11.476;2023-08-12T03:57:11;15.70;99.90
12166;DHT22;6146;48.128;11.476;2023-08-12T03:59:37;15.70;99.90
12166;DHT22;6146;48.128;11.476;2023-08-12T04:02:03;15.60;99.90
12166;DHT22;6146;48.128;11.476;2023-08-12T04:04:29;15.60;99.90
12166;DHT22;6146;48.128;11.476;2023-08-12T04:06:55;15.70;99.90
12166;DHT22;6146;48.128;11.476;2023-08-12T04:09:20;15.60;99.90
12166;DHT22;6146;48.128;11.476;2023-08-12T04:11:46;15.70;99.90
12166;DHT22;6146;48.128;11.476;2023-08-12T04:14:13;15.70;99.90
12166;DHT22;6146;48.128;11.476;2023-08-12T04:16:39;15.70;99.90
12166;DHT22;6146;48.128;11.476;2023-08-12T04:19:04;15.70;99.90
12166;DHT22;6146;48.128;11.476;2023-08-12T04:21:30;15.70;99.90
12166;DHT22;6146;48.128;11.476;2023-08-12T04:23:55;15.80;99.90
12166;DHT22;6146;48.128;11.476;2023-08-12T04:26:21;15.80;99.90
12166;DHT22;6146;48.128;11.476;2023-08-12T04:28:47;15.80;99.90
12166;DHT22;6146;48.128;11.476;2023-08-12T04:31:12;15.80;99.90
12166;DHT22;6146;48.128;11.476;2023-08-12T04:33:38;15.80;99.90
12166;DHT22;6146;48.128;11.476;2023-08-12T04:36:03;15.90;99.90
12166;DHT22;6146;48.128;11.476;2023-08-12T04:38:29;15.90;99.90
12166;DHT22;6146;48.128;11.476;2023-08-12T04:40:56;15.90;99.90
12166;DHT22;6146;48.128;11.476;2023-08-12T04:43:22;16.00;99.90
12166;DHT22;6146;48.128;11.476;2023-08-12T04:45:48;16.00;99.90
12166;DHT22;6146;48.128;11.476;2023-08-12T04:48:14;16.10;99.90
12166;DHT22;6146;48.128;11.476;2023-08-12T04:50:41;16.20;99.90
12166;DHT22;6146;48.128;11.476;2023-08-12T04:53:06;16.40;99.90
12166;DHT22;6146;48.128;11.476;2023-08-12T04:55:34;16.80;99.90
12166;DHT22;6146;48.128;11.476;2023-08-12T04:58:00;17.00;99.90
12166;DHT22;6146;48.128;11.476;2023-08-12T05:00:25;17.40;99.90
12166;DHT22;6146;48.128;11.476;2023-08-12T05:02:51;17.60;99.90
12166;DHT22;6146;48.128;11.476;2023-08-12T05:05:16;18.00;99.90
12166;DHT22;6146;48.128;11.476;2023-08-12T05:07:42;18.30;99.90
12166;DHT22;6146;48.128;11.476;2023-08-12T05:10:09;18.50;99.90
12166;DHT22;6146;48.128;11.476;2023-08-12T05:12:35;18.70;99.90
12166;DHT22;6146;48.128;11.476;2023-08-12T05:15:00;18.90;99.90
12166;DHT22;6146;48.128;11.476;2023-08-12T05:17:26;19.10;99.90
12166;DHT22;6146;48.128;11.476;2023-08-12T05:19:51;19.30;99.90
12166;DHT22;6146;48.128;11.476;2023-08-12T05:22:17;19.60;99.90
12166;DHT22;6146;48.128;11.476;2023-08-12T05:24:42;19.80;99.90
12166;DHT22;6146;48.128;11.476;2023-08-12T05:27:08;20.10;99.90
12166;DHT22;6146;48.128;11.476;2023-08-12T05:29:33;20.20;99.90
12166;DHT22;6146;48.128;11.476;2023-08-12T05:31:59;20.60;99.90
12166;DHT22;6146;48.128;11.476;2023-08-12T05:34:24;20.80;99.90
12166;DHT22;6146;48.128;11.476;2023-08-12T05:36:50;21.40;99.90
12166;DHT22;6146;48.128;11.476;2023-08-12T05:39:16;22.40;99.90
12166;DHT22;6146;48.128;11.476;2023-08-12T05:41:41;23.20;99.90
12166;DHT22;6146;48.128;11.476;2023-08-12T05:44:07;23.90;99.90
12166;DHT22;6146;48.128;11.476;2023-08-12T05:46:33;24.90;99.90
12166;DHT22;6146;48.128;11.476;2023-08-12T05:48:58;25.90;99.90
12166;DHT22;6146;48.128;11.476;2023-08-12T05:51:24;26.80;99.90
12166;DHT22;6146;48.128;11.476;2023-08-12T05:53:51;27.30;99.90
12166;DHT22;6146;48.128;11.476;2023-08-12T05:56:17;28.10;99.90
12166;DHT22;6146;48.128;11.476;2023-08-12T05:58:42;28.70;99.90
12166;DHT22;6146;48.128;11.476;2023-08-12T06:01:08;29.80;97.20
12166;DHT22;6146;48.128;11.476;2023-08-12T06:03:33;30.80;94.60
12166;DHT22;6146;48.128;11.476;2023-08-12T06:05:59;31.80;90.10
12166;DHT22;6146;48.128;11.476;2023-08-12T06:08:24;32.20;86.80
12166;DHT22;6146;48.128;11.476;2023-08-12T06:10:50;32.60;83.50
12166;DHT22;6146;48.128;11.476;2023-08-12T06:13:15;33.10;79.10
12166;DHT22;6146;48.128;11.476;2023-08-12T06:15:41;33.60;75.70
12166;DHT22;6146;48.128;11.476;2023-08-12T06:18:06;34.50;72.30
12166;DHT22;6146;48.128;11.476;2023-08-12T06:20:32;35.60;67.90
12166;DHT22;6146;48.128;11.476;2023-08-12T06:22:58;36.40;62.70
12166;DHT22;6146;48.128;11.476;2023-08-12T06:25:23;36.60;59.80
12166;DHT22;6146;48.128;11.476;2023-08-12T06:27:49;37.00;58.60
12166;DHT22;6146;48.128;11.476;2023-08-12T06:30:14;37.50;56.00
12166;DHT22;6146;48.128;11.476;2023-08-12T06:32:40;37.70;55.80
12166;DHT22;6146;48.128;11.476;2023-08-12T06:35:06;38.20;55.20
12166;DHT22;6146;48.128;11.476;2023-08-12T06:37:32;38.50;53.60
12166;DHT22;6146;48.128;11.476;2023-08-12T06:39:57;37.30;53.80
12166;DHT22;6146;48.128;11.476;2023-08-12T06:42:23;35.20;56.30
12166;DHT22;6146;48.128;11.476;2023-08-12T06:44:56;33.20;60.50
12166;DHT22;6146;48.128;11.476;2023-08-12T06:47:22;31.40;68.00
12166;DHT22;6146;48.128;11.476;2023-08-12T06:49:47;31.60;71.40
12166;DHT22;6146;48.128;11.476;2023-08-12T06:52:13;33.40;64.00
12166;DHT22;6146;48.128;11.476;2023-08-12T06:54:39;35.00;59.30
12166;DHT22;6146;48.128;11.476;2023-08-12T06:57:04;36.70;56.10
12166;DHT22;6146;48.128;11.476;2023-08-12T06:59:30;38.10;54.70
12166;DHT22;6146;48.128;11.476;2023-08-12T07:01:56;39.20;51.00
12166;DHT22;6146;48.128;11.476;2023-08-12T07:04:22;39.80;49.60
12166;DHT22;6146;48.128;11.476;2023-08-12T07:06:48;40.60;47.30
12166;DHT22;6146;48.128;11.476;2023-08-12T07:09:13;40.70;46.70
12166;DHT22;6146;48.128;11.476;2023-08-12T07:11:39;40.80;47.60
12166;DHT22;6146;48.128;11.476;2023-08-12T07:14:05;41.10;46.30
12166;DHT22;6146;48.128;11.476;2023-08-12T07:16:31;41.20;46.30
12166;DHT22;6146;48.128;11.476;2023-08-12T07:18:56;40.80;45.30
12166;DHT22;6146;48.128;11.476;2023-08-12T07:21:22;40.30;46.20
12166;DHT22;6146;48.128;11.476;2023-08-12T07:23:48;40.40;46.70
12166;DHT22;6146;48.128;11.476;2023-08-12T07:26:13;40.90;45.70
12166;DHT22;6146;48.128;11.476;2023-08-12T07:28:39;40.90;44.90
12166;DHT22;6146;48.128;11.476;2023-08-12T07:31:04;41.00;44.80
12166;DHT22;6146;48.128;11.476;2023-08-12T07:33:30;41.50;45.30
12166;DHT22;6146;48.128;11.476;2023-08-12T07:35:56;41.50;45.10
12166;DHT22;6146;48.128;11.476;2023-08-12T07:38:21;41.90;44.80
12166;DHT22;6146;48.128;11.476;2023-08-12T07:40:51;41.90;42.90
12166;DHT22;6146;48.128;11.476;2023-08-12T07:43:16;41.70;44.90
12166;DHT22;6146;48.128;11.476;2023-08-12T07:45:42;41.20;44.30
12166;DHT22;6146;48.128;11.476;2023-08-12T07:48:07;41.20;44.60
12166;DHT22;6146;48.128;11.476;2023-08-12T07:50:33;41.30;44.70
12166;DHT22;6146;48.128;11.476;2023-08-12T07:52:59;41.50;43.80
12166;DHT22;6146;48.128;11.476;2023-08-12T07:55:24;41.80;42.00
12166;DHT22;6146;48.128;11.476;2023-08-12T07:57:50;40.90;43.50
12166;DHT22;6146;48.128;11.476;2023-08-12T08:00:16;39.70;45.20
12166;DHT22;6146;48.128;11.476;2023-08-12T08:02:41;38.60;46.20
12166;DHT22;6146;48.128;11.476;2023-08-12T08:05:07;37.90;48.50
12166;DHT22;6146;48.128;11.476;2023-08-12T08:07:33;37.80;50.80
12166;DHT22;6146;48.128;11.476;2023-08-12T08:09:59;38.20;48.80
12166;DHT22;6146;48.128;11.476;2023-08-12T08:12:24;38.30;49.50
12166;DHT22;6146;48.128;11.476;2023-08-12T08:14:51;38.60;49.00
12166;DHT22;6146;48.128;11.476;2023-08-12T08:17:17;37.90;50.50
12166;DHT22;6146;48.128;11.476;2023-08-12T08:19:42;37.20;50.90
12166;DHT22;6146;48.128;11.476;2023-08-12T08:22:08;36.70;50.50
12166;DHT22;6146;48.128;11.476;2023-08-12T08:24:34;36.70;51.80
12166;DHT22;6146;48.128;11.476;2023-08-12T08:26:59;36.70;52.60
12166;DHT22;6146;48.128;11.476;2023-08-12T08:29:25;36.30;54.10
12166;DHT22;6146;48.128;11.476;2023-08-12T08:31:50;36.80;49.50
12166;DHT22;6146;48.128;11.476;2023-08-12T08:34:16;37.40;50.40
12166;DHT22;6146;48.128;11.476;2023-08-12T08:36:42;36.80;51.20
12166;DHT22;6146;48.128;11.476;2023-08-12T08:39:08;35.90;52.70
12166;DHT22;6146;48.128;11.476;2023-08-12T08:41:38;35.30;53.60
12166;DHT22;6146;48.128;11.476;2023-08-12T08:44:07;34.60;58.10
12166;DHT22;6146;48.128;11.476;2023-08-12T08:46:33;34.50;57.60
12166;DHT22;6146;48.128;11.476;2023-08-12T08:48:59;34.60;57.90
12166;DHT22;6146;48.128;11.476;2023-08-12T08:51:30;34.10;56.30
12166;DHT22;6146;48.128;11.476;2023-08-12T08:53:56;33.20;59.10
12166;DHT22;6146;48.128;11.476;2023-08-12T08:56:23;32.70;60.80
12166;DHT22;6146;48.128;11.476;2023-08-12T08:58:49;32.50;62.20
12166;DHT22;6146;48.128;11.476;2023-08-12T09:01:18;32.20;64.10
12166;DHT22;6146;48.128;11.476;2023-08-12T09:03:45;32.20;63.50
12166;DHT22;6146;48.128;11.476;2023-08-12T09:06:11;31.80;66.50
12166;DHT22;6146;48.128;11.476;2023-08-12T09:08:40;31.70;69.00
12166;DHT22;6146;48.128;11.476;2023-08-12T09:11:07;31.60;69.20
12166;DHT22;6146;48.128;11.476;2023-08-12T09:13:33;31.30;71.50
12166;DHT22;6146;48.128;11.476;2023-08-12T09:15:58;31.40;69.90
12166;DHT22;6146;48.128;11.476;2023-08-12T09:18:25;31.70;70.50
12166;DHT22;6146;48.128;11.476;2023-08-12T09:20:51;32.00;68.30
12166;DHT22;6146;48.128;11.476;2023-08-12T09:23:17;32.40;66.50
12166;DHT22;6146;48.128;11.476;2023-08-12T09:25:44;33.00;64.10
12166;DHT22;6146;48.128;11.476;2023-08-12T09:28:10;33.80;63.30
12166;DHT22;6146;48.128;11.476;2023-08-12T09:30:36;34.60;60.50
12166;DHT22;6146;48.128;11.476;2023-08-12T09:33:04;36.00;60.50
12166;DHT22;6146;48.128;11.476;2023-08-12T09:37:58;37.30;54.30
12166;DHT22;6146;48.128;11.476;2023-08-12T09:40:24;36.60;56.90
12166;DHT22;6146;48.128;11.476;2023-08-12T09:42:50;35.80;57.00
12166;DHT22;6146;48.128;11.476;2023-08-12T09:45:15;35.10;58.00
12166;DHT22;6146;48.128;11.476;2023-08-12T09:47:43;34.40;59.30
12166;DHT22;6146;48.128;11.476;2023-08-12T09:50:09;33.80;62.00
12166;DHT22;6146;48.128;11.476;2023-08-12T09:52:35;33.20;62.30
12166;DHT22;6146;48.128;11.476;2023-08-12T09:55:02;32.80;64.60
12166;DHT22;6146;48.128;11.476;2023-08-12T09:57:32;33.00;66.40
12166;DHT22;6146;48.128;11.476;2023-08-12T10:00:00;33.50;63.10
12166;DHT22;6146;48.128;11.476;2023-08-12T10:02:26;34.00;61.90
12166;DHT22;6146;48.128;11.476;2023-08-12T10:04:54;33.60;63.20
12166;DHT22;6146;48.128;11.476;2023-08-12T10:07:23;33.60;66.70
12166;DHT22;6146;48.128;11.476;2023-08-12T10:09:49;34.50;61.50
12166;DHT22;6146;48.128;11.476;2023-08-12T10:12:15;36.30;58.30
12166;DHT22;6146;48.128;11.476;2023-08-12T10:14:40;37.90;54.20
12166;DHT22;6146;48.128;11.476;2023-08-12T10:17:07;38.20;53.80
12166;DHT22;6146;48.128;11.476;2023-08-12T10:19:35;39.40;53.00
12166;DHT22;6146;48.128;11.476;2023-08-12T10:22:03;39.90;51.90
12166;DHT22;6146;48.128;11.476;2023-08-12T10:24:29;40.00;52.70
12166;DHT22;6146;48.128;11.476;2023-08-12T10:26:55;39.80;52.30
12166;DHT22;6146;48.128;11.476;2023-08-12T10:29:23;40.30;52.20
12166;DHT22;6146;48.128;11.476;2023-08-12T10:31:49;41.10;48.40
12166;DHT22;6146;48.128;11.476;2023-08-12T10:34:23;40.80;49.30
12166;DHT22;6146;48.128;11.476;2023-08-12T10:37:01;41.50;49.80
12166;DHT22;6146;48.128;11.476;2023-08-12T10:39:27;42.10;46.80
12166;DHT22;6146;48.128;11.476;2023-08-12T10:41:56;41.90;47.30
12166;DHT22;6146;48.128;11.476;2023-08-12T10:44:27;41.70;47.20
12166;DHT22;6146;48.128;11.476;2023-08-12T10:47:08;41.90;44.10
12166;DHT22;6146;48.128;11.476;2023-08-12T10:49:39;41.40;44.00
12166;DHT22;6146;48.128;11.476;2023-08-12T10:52:28;40.70;44.30
12166;DHT22;6146;48.128;11.476;2023-08-12T10:54:54;40.60;43.40
12166;DHT22;6146;48.128;11.476;2023-08-12T10:57:37;40.80;44.90
12166;DHT22;6146;48.128;11.476;2023-08-12T11:00:04;41.20;43.50
12166;DHT22;6146;48.128;11.476;2023-08-12T11:02:32;41.70;42.70
12166;DHT22;6146;48.128;11.476;2023-08-12T11:05:10;42.20;41.00
12166;DHT22;6146;48.128;11.476;2023-08-12T11:07:42;42.20;43.00
12166;DHT22;6146;48.128;11.476;2023-08-12T11:10:24;42.20;41.60
12166;DHT22;6146;48.128;11.476;2023-08-12T11:12:54;41.90;42.00
12166;DHT22;6146;48.128;11.476;2023-08-12T11:15:33;41.50;41.00
12166;DHT22;6146;48.128;11.476;2023-08-12T11:18:03;41.10;41.60
12166;DHT22;6146;48.128;11.476;2023-08-12T11:20:30;40.70;44.30
12166;DHT22;6146;48.128;11.476;2023-08-12T11:22:56;40.60;44.40
12166;DHT22;6146;48.128;11.476;2023-08-12T11:25:24;40.60;44.90
12166;DHT22;6146;48.128;11.476;2023-08-12T11:27:49;41.10;43.10
12166;DHT22;6146;48.128;11.476;2023-08-12T11:30:17;41.30;43.00
12166;DHT22;6146;48.128;11.476;2023-08-12T11:32:47;41.70;42.50
12166;DHT22;6146;48.128;11.476;2023-08-12T11:35:14;42.40;41.20
12166;DHT22;6146;48.128;11.476;2023-08-12T11:37:42;42.70;41.10
12166;DHT22;6146;48.128;11.476;2023-08-12T11:40:08;42.90;41.50
12166;DHT22;6146;48.128;11.476;2023-08-12T11:42:35;42.60;40.90
12166;DHT22;6146;48.128;11.476;2023-08-12T11:45:02;42.30;40.30
12166;DHT22;6146;48.128;11.476;2023-08-12T11:47:28;42.00;41.10
12166;DHT22;6146;48.128;11.476;2023-08-12T11:49:53;41.40;41.60
12166;DHT22;6146;48.128;11.476;2023-08-12T11:52:19;40.40;43.40
12166;DHT22;6146;48.128;11.476;2023-08-12T11:54:45;40.30;43.80
12166;DHT22;6146;48.128;11.476;2023-08-12T11:57:11;39.90;43.70
12166;DHT22;6146;48.128;11.476;2023-08-12T11:59:37;39.90;43.90
12166;DHT22;6146;48.128;11.476;2023-08-12T12:02:03;40.30;43.90
12166;DHT22;6146;48.128;11.476;2023-08-12T12:04:32;39.90;44.10
12166;DHT22;6146;48.128;11.476;2023-08-12T12:06:58;39.20;44.80
12166;DHT22;6146;48.128;11.476;2023-08-12T12:09:25;38.80;45.70
12166;DHT22;6146;48.128;11.476;2023-08-12T12:11:54;38.30;45.60
12166;DHT22;6146;48.128;11.476;2023-08-12T12:14:21;37.70;48.30
12166;DHT22;6146;48.128;11.476;2023-08-12T12:16:47;37.00;50.00
12166;DHT22;6146;48.128;11.476;2023-08-12T12:19:17;36.80;49.60
12166;DHT22;6146;48.128;11.476;2023-08-12T12:21:46;36.90;50.70
12166;DHT22;6146;48.128;11.476;2023-08-12T12:24:12;36.90;52.10
12166;DHT22;6146;48.128;11.476;2023-08-12T12:26:38;36.70;50.10
12166;DHT22;6146;48.128;11.476;2023-08-12T12:29:04;37.10;49.10
12166;DHT22;6146;48.128;11.476;2023-08-12T12:31:35;37.40;48.80
12166;DHT22;6146;48.128;11.476;2023-08-12T12:34:04;37.40;51.00
12166;DHT22;6146;48.128;11.476;2023-08-12T12:36:31;36.80;51.50
12166;DHT22;6146;48.128;11.476;2023-08-12T12:38:56;36.60;51.30
12166;DHT22;6146;48.128;11.476;2023-08-12T12:41:22;36.80;50.20
12166;DHT22;6146;48.128;11.476;2023-08-12T12:43:48;36.80;48.40
12166;DHT22;6146;48.128;11.476;2023-08-12T12:46:15;36.90;49.50
12166;DHT22;6146;48.128;11.476;2023-08-12T12:48:40;36.70;50.80
12166;DHT22;6146;48.128;11.476;2023-08-12T12:51:06;36.20;51.70
12166;DHT22;6146;48.128;11.476;2023-08-12T12:53:31;35.70;51.70
12166;DHT22;6146;48.128;11.476;2023-08-12T12:55:57;35.30;52.30
12166;DHT22;6146;48.128;11.476;2023-08-12T12:58:28;35.20;51.70
12166;DHT22;6146;48.128;11.476;2023-08-12T13:00:54;35.10;53.30
12166;DHT22;6146;48.128;11.476;2023-08-12T13:03:19;34.80;53.80
12166;DHT22;6146;48.128;11.476;2023-08-12T13:05:45;34.60;53.20
12166;DHT22;6146;48.128;11.476;2023-08-12T13:08:10;34.60;52.80
12166;DHT22;6146;48.128;11.476;2023-08-12T13:10:36;34.70;52.90
12166;DHT22;6146;48.128;11.476;2023-08-12T13:13:01;34.30;50.80
12166;DHT22;6146;48.128;11.476;2023-08-12T13:15:28;34.30;53.80
12166;DHT22;6146;48.128;11.476;2023-08-12T13:17:54;34.50;53.70
12166;DHT22;6146;48.128;11.476;2023-08-12T13:20:21;34.80;53.80
12166;DHT22;6146;48.128;11.476;2023-08-12T13:22:46;35.20;51.80
12166;DHT22;6146;48.128;11.476;2023-08-12T13:25:12;35.20;50.70
12166;DHT22;6146;48.128;11.476;2023-08-12T13:27:37;35.00;50.70
12166;DHT22;6146;48.128;11.476;2023-08-12T13:30:04;34.60;50.60
12166;DHT22;6146;48.128;11.476;2023-08-12T13:32:30;34.40;54.10
12166;DHT22;6146;48.128;11.476;2023-08-12T13:34:55;34.10;54.40
12166;DHT22;6146;48.128;11.476;2023-08-12T13:37:21;34.10;54.30
12166;DHT22;6146;48.128;11.476;2023-08-12T13:39:47;34.10;54.00
12166;DHT22;6146;48.128;11.476;2023-08-12T13:42:12;34.00;54.30
12166;DHT22;6146;48.128;11.476;2023-08-12T13:44:38;34.10;56.70
12166;DHT22;6146;48.128;11.476;2023-08-12T13:47:03;34.40;55.10
12166;DHT22;6146;48.128;11.476;2023-08-12T13:49:29;34.60;53.60
12166;DHT22;6146;48.128;11.476;2023-08-12T13:51:54;34.50;54.40
12166;DHT22;6146;48.128;11.476;2023-08-12T13:54:20;34.40;54.70
12166;DHT22;6146;48.128;11.476;2023-08-12T13:56:46;34.20;54.10
12166;DHT22;6146;48.128;11.476;2023-08-12T13:59:11;34.10;55.30
12166;DHT22;6146;48.128;11.476;2023-08-12T14:01:37;34.00;55.70
12166;DHT22;6146;48.128;11.476;2023-08-12T14:04:03;34.00;56.50
12166;DHT22;6146;48.128;11.476;2023-08-12T14:06:29;33.70;57.90
12166;DHT22;6146;48.128;11.476;2023-08-12T14:08:54;33.90;57.70
12166;DHT22;6146;48.128;11.476;2023-08-12T14:11:20;33.90;57.00
12166;DHT22;6146;48.128;11.476;2023-08-12T14:13:46;34.00;58.10
12166;DHT22;6146;48.128;11.476;2023-08-12T14:16:11;34.10;57.50
12166;DHT22;6146;48.128;11.476;2023-08-12T14:18:37;33.90;55.20
12166;DHT22;6146;48.128;11.476;2023-08-12T14:21:03;33.50;54.80
12166;DHT22;6146;48.128;11.476;2023-08-12T14:23:29;33.10;55.80
12166;DHT22;6146;48.128;11.476;2023-08-12T14:25:55;32.80;56.50
12166;DHT22;6146;48.128;11.476;2023-08-12T14:28:20;32.60;57.10
12166;DHT22;6146;48.128;11.476;2023-08-12T14:30:46;32.60;57.50
12166;DHT22;6146;48.128;11.476;2023-08-12T14:33:11;32.70;57.90
12166;DHT22;6146;48.128;11.476;2023-08-12T14:35:37;33.00;58.80
12166;DHT22;6146;48.128;11.476;2023-08-12T14:38:02;33.20;57.90
12166;DHT22;6146;48.128;11.476;2023-08-12T14:40:28;32.90;55.80
12166;DHT22;6146;48.128;11.476;2023-08-12T14:42:54;32.70;58.80
12166;DHT22;6146;48.128;11.476;2023-08-12T14:45:19;32.50;58.00
12166;DHT22;6146;48.128;11.476;2023-08-12T14:47:45;32.10;58.60
12166;DHT22;6146;48.128;11.476;2023-08-12T14:50:11;31.70;59.80
12166;DHT22;6146;48.128;11.476;2023-08-12T14:52:36;31.40;61.00
12166;DHT22;6146;48.128;11.476;2023-08-12T14:55:02;31.10;60.20
12166;DHT22;6146;48.128;11.476;2023-08-12T14:57:28;30.80;58.70
12166;DHT22;6146;48.128;11.476;2023-08-12T14:59:53;30.40;59.20
12166;DHT22;6146;48.128;11.476;2023-08-12T15:02:22;30.00;59.80
12166;DHT22;6146;48.128;11.476;2023-08-12T15:04:50;30.00;61.20
12166;DHT22;6146;48.128;11.476;2023-08-12T15:07:16;29.80;59.90
12166;DHT22;6146;48.128;11.476;2023-08-12T15:09:43;29.70;61.40
12166;DHT22;6146;48.128;11.476;2023-08-12T15:12:09;29.70;61.30
12166;DHT22;6146;48.128;11.476;2023-08-12T15:14:35;29.70;60.70
12166;DHT22;6146;48.128;11.476;2023-08-12T15:17:00;29.60;61.50
12166;DHT22;6146;48.128;11.476;2023-08-12T15:19:26;29.60;62.10
12166;DHT22;6146;48.128;11.476;2023-08-12T15:21:51;29.50;60.70
12166;DHT22;6146;48.128;11.476;2023-08-12T15:24:17;29.50;61.10
12166;DHT22;6146;48.128;11.476;2023-08-12T15:26:42;29.50;61.30
12166;DHT22;6146;48.128;11.476;2023-08-12T15:29:08;29.60;62.00
12166;DHT22;6146;48.128;11.476;2023-08-12T15:31:34;29.90;61.20